Flight Track Log - Related Links

Times and Time Zones

All times are in EDT time to prevent confusion due to time zone crossing. See the N4141G flight status page for this flight to view local times or setup timezone preferences in your user account.

Time Position Orientation Groundspeed Altitude Reporting Facility
EDT Latitude Longitude Course Direction KTS MPH feet Rate Location/Type
Mon 07:52:19 AM 38.1583 -85.1169 267° West 120 138 4,100  Level Indianapolis Center
Mon 07:53:20 AM 38.1564 -85.1692 267° West 125 144 4,900 634 Climbing Indianapolis Center
Mon 07:54:22 AM 38.1531 -85.2075 264° West 129 148 5,400 634 Climbing Indianapolis Center
Mon 07:55:23 AM 38.1492 -85.2647 265° West 133 153 6,200 732 Climbing Indianapolis Center
Mon 07:56:25 AM 38.1492 -85.3117 270° West 133 153 6,900 634 Climbing Indianapolis Center
Mon 07:57:26 AM 38.1444 -85.3594 263° West 135 155 7,500 585 Climbing Indianapolis Center
Mon 07:58:28 AM 38.1417 -85.4086 266° West 137 158 8,100 629 Climbing Indianapolis Center
Mon 07:59:30 AM 38.1394 -85.4569 267° West 137 158 8,800 634 Climbing Indianapolis Center
Mon 08:00:31 AM 38.1353 -85.5072 264° West 141 162 9,400 634 Climbing Indianapolis Center
Mon 08:01:33 AM 38.1325 -85.5572 266° West 142 163 10,100 629 Climbing Indianapolis Center
Mon 08:02:35 AM 38.1286 -85.6067 264° West 141 162 10,700 585 Climbing Indianapolis Center
Mon 08:03:36 AM 38.1258 -85.6553 266° West 138 159 11,300 634 Climbing Indianapolis Center
Mon 08:04:38 AM 38.1231 -85.7047 266° West 140 161 12,000 683 Climbing Indianapolis Center
Mon 08:05:39 AM 38.1189 -85.7653 265° West 143 165 12,700 634 Climbing Indianapolis Center
Mon 08:06:41 AM 38.1158 -85.8164 266° West 144 166 13,300 629 Climbing Indianapolis Center
Mon 08:07:43 AM 38.1119 -85.8669 264° West 143 165 14,000 634 Climbing Indianapolis Center
Mon 08:08:44 AM 38.1078 -85.9186 264° West 147 169 14,600 585 Climbing Indianapolis Center
Mon 08:09:46 AM 38.1044 -85.9697 265° West 145 167 15,200 629 Climbing Indianapolis Center
Mon 08:10:48 AM 38.1006 -86.0206 264° West 145 167 15,900 634 Climbing Indianapolis Center
Mon 08:11:49 AM 38.0969 -86.0689 265° West 140 161 16,500 293 Climbing Indianapolis Center
Mon 08:12:51 AM 38.0944 -86.1242 267° West 154 177 16,500  Level Indianapolis Center
Mon 08:13:53 AM 38.0894 -86.1844 264° West 169 194 16,500  Level Indianapolis Center
Mon 08:14:54 AM 38.0853 -86.2581 266° West 172 198 16,500  Level Indianapolis Center
Mon 08:15:56 AM 38.0803 -86.3197 264° West 173 199 16,500  Level Indianapolis Center
Mon 08:16:58 AM 38.0758 -86.3825 265° West 176 203 16,500  Level Indianapolis Center
Mon 08:18:00 AM 38.0708 -86.4447 264° West 177 204 16,500  Level Indianapolis Center
Mon 08:19:01 AM 38.0672 -86.5069 266° West 176 203 16,500  Level Indianapolis Center
Mon 08:21:05 AM 38.0572 -86.6289 264° West 174 200 16,500  Level Indianapolis Center
Mon 08:22:07 AM 38.0525 -86.6908 264° West 175 201 16,500  Level Indianapolis Center
Mon 08:23:09 AM 38.0469 -86.7647 265° West 174 200 16,500  Level Indianapolis Center
Mon 08:24:11 AM 38.0422 -86.8278 265° West 178 205 16,500  Level Indianapolis Center
Mon 08:25:12 AM 38.0378 -86.8906 265° West 178 205 16,500  Level Indianapolis Center
Mon 08:26:14 AM 38.0322 -86.9522 263° West 175 201 16,500  Level Indianapolis Center
Mon 08:27:16 AM 38.0275 -87.0142 264° West 175 201 16,500  Level Indianapolis Center
Mon 08:28:18 AM 38.0233 -87.0764 265° West 176 203 16,500  Level Indianapolis Center
Mon 08:29:20 AM 38.0175 -87.1386 263° West 176 203 16,500  Level Indianapolis Center
Mon 08:30:22 AM 38.0133 -87.2011 265° West 176 203 16,500  Level Indianapolis Center
Mon 08:31:24 AM 38.0078 -87.2647 264° West 180 207 16,500  Level Indianapolis Center
Mon 08:32:26 AM 38.0028 -87.3281 264° West 180 207 16,500  Level Indianapolis Center
Mon 08:33:28 AM 37.9961 -87.4033 264° West 178 205 16,500  Level Indianapolis Center
Mon 08:34:30 AM 37.9917 -87.4650 265° West 176 203 16,500  Level Indianapolis Center
Mon 08:35:32 AM 37.9867 -87.5272 264° West 176 203 16,500  Level Indianapolis Center
Mon 08:36:34 AM 37.9808 -87.5883 263° West 174 200 16,500  Level Indianapolis Center
Mon 08:37:36 AM 37.9767 -87.6483 265° West 171 197 16,500  Level Indianapolis Center
Mon 08:38:38 AM 37.9708 -87.7103 263° West 173 199 16,500  Level Indianapolis Center
Mon 08:39:40 AM 37.9661 -87.7703 264° West 171 197 16,500  Level Indianapolis Center
Mon 08:40:42 AM 37.9614 -87.8319 264° West 174 200 16,500  Level Indianapolis Center
Mon 08:41:44 AM 37.9542 -87.9050 263° West 173 199 16,500  Level Indianapolis Center
Mon 08:42:45 AM 37.9497 -87.9653 265° West 173 199 16,500  Level Indianapolis Center
Mon 08:43:47 AM 37.9442 -88.0253 263° West 171 197 16,500  Level Indianapolis Center
Mon 08:44:49 AM 37.9389 -88.0853 264° West 171 197 16,500  Level Indianapolis Center
Mon 08:45:51 AM 37.9333 -88.1458 263° West 171 197 16,500  Level Indianapolis Center
Mon 08:46:53 AM 37.9286 -88.2067 264° West 173 199 16,500  Level Indianapolis Center
Mon 08:47:58 AM 37.9244 -88.2786 266° West 170 196 16,500  Level Kansas City Center
Mon 08:49:00 AM 37.9189 -88.3397 263° West 172 198 16,500  Level Kansas City Center
Mon 08:50:02 AM 37.9128 -88.3992 263° West 170 196 16,500  Level Kansas City Center
Mon 08:51:03 AM 37.9083 -88.4592 265° West 170 196 16,500  Level Kansas City Center
Mon 08:52:05 AM 37.9022 -88.5192 263° West 171 197 16,500  Level Kansas City Center
Mon 08:53:07 AM 37.8958 -88.5797 262° West 172 198 16,500  Level Kansas City Center
Mon 08:55:09 AM 37.8836 -88.7003 263° West 172 198 16,500  Level Indianapolis Center
Mon 08:56:12 AM 37.8789 -88.7650 265° West 172 198 16,500  Level Kansas City Center
Mon 08:57:13 AM 37.8739 -88.8247 264° West 172 198 16,500  Level Kansas City Center
Mon 08:58:15 AM 37.8672 -88.8850 262° West 173 199 16,500  Level Kansas City Center
Mon 08:59:17 AM 37.8600 -88.9572 263° West 173 199 16,500  Level Kansas City Center
Mon 09:00:21 AM 37.8550 -89.0181 264° West 174 200 16,500  Level Kansas City Center
Mon 09:01:22 AM 37.8472 -89.0856 262° West 176 203 16,500  Level Kansas City Center
Mon 09:02:24 AM 37.8425 -89.1458 264° West 174 200 16,500  Level Kansas City Center
Mon 09:03:26 AM 37.8358 -89.2069 262° West 176 203 16,500  Level Kansas City Center
Mon 09:04:27 AM 37.8303 -89.2711 264° West 172 198 16,500  Level Kansas City Center
Mon 09:05:29 AM 37.8253 -89.3269 264° West 172 198 16,500  Level Kansas City Center
Mon 09:06:31 AM 37.8189 -89.3936 263° West 173 199 16,500  Level Kansas City Center
Mon 09:07:32 AM 37.8125 -89.4558 263° West 177 204 16,500  Level Kansas City Center
Mon 09:08:34 AM 37.8072 -89.5169 264° West 178 205 16,500  Level Kansas City Center
Mon 09:09:36 AM 37.8006 -89.5814 263° West 181 208 16,500  Level Kansas City Center
Mon 09:10:37 AM 37.7939 -89.6450 262° West 183 211 16,500  Level Kansas City Center
Mon 09:11:39 AM 37.7867 -89.7078 262° West 183 211 16,500  Level Kansas City Center
Mon 09:12:41 AM 37.7803 -89.7706 263° West 182 209 16,500  Level Kansas City Center
Mon 09:13:43 AM 37.7722 -89.8447 262° West 179 206 16,500  Level Kansas City Center
Mon 09:14:45 AM 37.7667 -89.9083 264° West 180 207 16,500  Level Kansas City Center
Mon 09:15:46 AM 37.7600 -89.9722 263° West 183 211 16,500  Level Kansas City Center
Mon 09:16:48 AM 37.7525 -90.0367 262° West 185 213 16,500  Level Kansas City Center
Mon 09:17:50 AM 37.7464 -90.0992 263° West 182 209 16,500  Level Kansas City Center
Mon 09:18:52 AM 37.7389 -90.1639 262° West 184 212 16,500  Level Kansas City Center
Mon 09:19:53 AM 37.7333 -90.2264 264° West 181 208 16,500  Level Kansas City Center
Mon 09:20:55 AM 37.7242 -90.3031 261° West 184 212 16,500  Level Kansas City Center
Mon 09:21:57 AM 37.7178 -90.3650 263° West 180 207 16,500 -48 Level Kansas City Center
Mon 09:22:59 AM 37.7100 -90.4261 261° West 178 205 16,400 -48 Descending Kansas City Center
Mon 09:24:01 AM 37.7042 -90.4883 263° West 178 205 16,400  Level Kansas City Center
Mon 09:25:02 AM 37.6964 -90.5517 261° West 182 209 16,400  Level Kansas City Center
Mon 09:26:04 AM 37.6897 -90.6150 262° West 182 209 16,400  Level Kansas City Center
Mon 09:27:06 AM 37.6828 -90.6786 262° West 182 209 16,400  Level Kansas City Center
Mon 09:28:08 AM 37.6742 -90.7553 262° West 183 211 16,400  Level Kansas City Center
Mon 09:29:10 AM 37.6669 -90.8178 262° West 181 208 16,400  Level Kansas City Center
Mon 09:30:11 AM 37.6603 -90.8811 262° West 181 208 16,400  Level Kansas City Center
Mon 09:31:13 AM 37.6531 -90.9428 262° West 180 207 16,400  Level Kansas City Center
Mon 09:32:15 AM 37.6464 -91.0058 262° West 181 208 16,400  Level Kansas City Center
Mon 09:33:17 AM 37.6394 -91.0697 262° West 183 211 16,400  Level Kansas City Center
Mon 09:34:19 AM 37.6311 -91.1383 261° West 180 207 16,400  Level Kansas City Center
Mon 09:35:21 AM 37.6233 -91.2019 261° West 182 209 16,400  Level Kansas City Center
Mon 09:36:22 AM 37.6169 -91.2644 263° West 180 207 16,400  Level Kansas City Center
Mon 09:37:24 AM 37.6100 -91.3272 262° West 180 207 16,400  Level Kansas City Center
Mon 09:38:26 AM 37.6014 -91.4022 262° West 180 207 16,400  Level Kansas City Center
Mon 09:39:28 AM 37.5936 -91.4625 261° West 176 203 16,400  Level Kansas City Center
Mon 09:40:30 AM 37.5867 -91.5264 262° West 182 209 16,400  Level Kansas City Center
Mon 09:41:32 AM 37.5797 -91.5889 262° West 180 207 16,400  Level Kansas City Center
Mon 09:42:34 AM 37.5722 -91.6517 261° West 180 207 16,400  Level Kansas City Center
Mon 09:43:36 AM 37.5644 -91.7125 261° West 178 205 16,400  Level Kansas City Center
Mon 09:44:38 AM 37.5567 -91.7753 261° West 179 206 16,400  Level Kansas City Center
Mon 09:45:40 AM 37.5489 -91.8497 263° West 178 205 16,400  Level Kansas City Center
Mon 09:46:42 AM 37.5408 -91.9122 261° West 179 206 16,400  Level Kansas City Center
Mon 09:47:44 AM 37.5333 -91.9736 261° West 178 205 16,400  Level Kansas City Center
Mon 09:48:46 AM 37.5264 -92.0347 262° West 176 203 16,400 48 Level Kansas City Center
Mon 09:49:48 AM 37.5181 -92.0967 260° West 178 205 16,500 48 Climbing Kansas City Center
Mon 09:50:50 AM 37.5114 -92.1594 262° West 179 206 16,500  Level Kansas City Center
Mon 09:51:52 AM 37.5033 -92.2214 261° West 178 205 16,500  Level Kansas City Center
Mon 09:52:54 AM 37.4950 -92.2839 260° West 179 206 16,500  Level Kansas City Center
Mon 09:53:56 AM 37.4861 -92.3589 262° West 180 207 16,500  Level Kansas City Center
Mon 09:54:58 AM 37.4783 -92.4219 261° West 180 207 16,500  Level Kansas City Center
Mon 09:56:00 AM 37.4708 -92.4847 261° West 180 207 16,500  Level Kansas City Center
Mon 09:57:02 AM 37.4617 -92.5483 260° West 182 209 16,500  Level Kansas City Center
Mon 09:58:04 AM 37.4550 -92.6106 262° West 181 208 16,500  Level Kansas City Center
Mon 09:59:06 AM 37.4467 -92.6722 260° West 180 207 16,500  Level Kansas City Center
Mon 10:00:08 AM 37.4392 -92.7350 261° West 181 208 16,500  Level Kansas City Center
Mon 10:01:10 AM 37.4283 -92.8072 259° West 177 204 16,500  Level Kansas City Center
Mon 10:02:12 AM 37.4208 -92.8689 261° West 176 203 16,500  Level Kansas City Center
Mon 10:03:14 AM 37.4128 -92.9306 261° West 178 205 16,500  Level Kansas City Center
Mon 10:04:16 AM 37.4042 -92.9928 260° West 178 205 16,500  Level Kansas City Center
Mon 10:05:18 AM 37.3961 -93.0550 261° West 179 206 16,500  Level Kansas City Center
Mon 10:06:20 AM 37.3886 -93.1164 261° West 179 206 16,500  Level Kansas City Center
Mon 10:07:22 AM 37.3808 -93.1786 261° West 179 206 16,500  Level Kansas City Center
Mon 10:08:24 AM 37.3697 -93.2542 260° West 181 208 16,500  Level Kansas City Center
Mon 10:09:26 AM 37.3611 -93.3161 260° West 181 208 16,500  Level Kansas City Center
Mon 10:10:28 AM 37.3531 -93.3783 261° West 180 207 16,500  Level Kansas City Center
Mon 10:11:30 AM 37.3467 -93.4408 263° West 180 207 16,500  Level Kansas City Center
Mon 10:12:32 AM 37.3375 -93.5033 260° West 181 208 16,500  Level Kansas City Center
Mon 10:13:34 AM 37.3278 -93.5631 258° West 177 204 16,500  Level Kansas City Center
Mon 10:14:36 AM 37.3203 -93.6247 261° West 177 204 16,500  Level Kansas City Center
Mon 10:15:38 AM 37.3108 -93.6975 261° West 175 201 16,500  Level Kansas City Center
Mon 10:16:40 AM 37.3019 -93.7583 260° West 176 203 16,500  Level Kansas City Center
Mon 10:17:42 AM 37.2942 -93.8197 261° West 176 203 16,500  Level Kansas City Center
Mon 10:18:45 AM 37.2853 -93.8808 260° West 176 203 16,500  Level Kansas City Center
Mon 10:19:47 AM 37.2756 -93.9414 259° West 177 204 16,500  Level Kansas City Center
Mon 10:20:49 AM 37.2683 -94.0019 261° West 175 201 16,500  Level Kansas City Center
Mon 10:21:51 AM 37.2597 -94.0631 260° West 175 201 16,500  Level Kansas City Center
Mon 10:22:53 AM 37.2500 -94.1367 261° West 174 200 16,500  Level Kansas City Center
Mon 10:23:55 AM 37.2419 -94.1964 260° West 173 199 16,500  Level Kansas City Center
Mon 10:24:57 AM 37.2333 -94.2569 260° West 176 203 16,500  Level Kansas City Center
Mon 10:25:59 AM 37.2250 -94.3150 260° West 170 196 16,500  Level Kansas City Center
Mon 10:27:01 AM 37.2164 -94.3756 260° West 174 200 16,500  Level Kansas City Center
Mon 10:28:03 AM 37.2072 -94.4331 259° West 170 196 16,500  Level Kansas City Center
Mon 10:29:05 AM 37.1983 -94.4928 259° West 172 198 16,500  Level Kansas City Center
Mon 10:30:07 AM 37.1889 -94.5669 261° West 177 204 16,500  Level Kansas City Center
Mon 10:31:09 AM 37.1800 -94.6256 259° West 174 200 16,500  Level Kansas City Center
Mon 10:32:11 AM 37.1711 -94.6858 260° West 174 200 16,500  Level Kansas City Center
Mon 10:33:13 AM 37.1625 -94.7456 260° West 174 200 16,500  Level Kansas City Center
Mon 10:34:15 AM 37.1547 -94.8064 261° West 175 201 16,500  Level Kansas City Center
Mon 10:35:17 AM 37.1450 -94.8650 258° West 173 199 16,500  Level Kansas City Center
Mon 10:36:19 AM 37.1350 -94.9369 260° West 175 201 16,500  Level Kansas City Center
Mon 10:37:21 AM 37.1258 -94.9975 259° West 176 203 16,500  Level Kansas City Center
Mon 10:38:23 AM 37.1172 -95.0569 260° West 175 201 16,500  Level Kansas City Center
Mon 10:39:25 AM 37.1081 -95.1164 259° West 174 200 16,500  Level Kansas City Center
Mon 10:40:27 AM 37.0994 -95.1769 260° West 176 203 16,500  Level Kansas City Center
Mon 10:41:29 AM 37.0906 -95.2358 259° West 174 200 16,500  Level Kansas City Center
Mon 10:42:31 AM 37.0789 -95.3081 259° West 176 203 16,500  Level Kansas City Center
Mon 10:43:33 AM 37.0700 -95.3686 260° West 177 204 16,500  Level Kansas City Center
Mon 10:44:35 AM 37.0614 -95.4281 260° West 176 203 16,500 -48 Level Kansas City Center
Mon 10:45:37 AM 37.0514 -95.4881 258° West 176 203 16,400 -48 Descending Kansas City Center
Mon 10:46:39 AM 37.0425 -95.5481 260° West 176 203 16,400  Level Kansas City Center
Mon 10:47:41 AM 37.0339 -95.6086 260° West 176 203 16,400  Level Kansas City Center
Mon 10:48:43 AM 37.0219 -95.6808 258° West 177 204 16,400  Level Kansas City Center
Mon 10:49:45 AM 37.0122 -95.7422 259° West 179 206 16,400  Level Kansas City Center
Mon 10:50:47 AM 37.0031 -95.8028 259° West 178 205 16,400  Level Kansas City Center
Mon 10:51:49 AM 36.9936 -95.8631 259° West 177 204 16,400  Level Kansas City Center
Mon 10:52:52 AM 36.9833 -95.9247 258° West 179 206 16,400  Level Kansas City Center
Mon 10:53:54 AM 36.9739 -95.9856 259° West 179 206 16,400  Level Kansas City Center
Mon 10:54:56 AM 36.9631 -96.0564 259° West 175 201 16,400  Level Kansas City Center
Mon 10:55:58 AM 36.9531 -96.1183 259° West 178 205 16,400  Level Kansas City Center
Mon 10:57:00 AM 36.9439 -96.1792 259° West 178 205 16,400  Level Kansas City Center
Mon 10:58:02 AM 36.9339 -96.2375 258° West 175 201 16,400  Level Kansas City Center
Mon 10:59:04 AM 36.9244 -96.2992 259° West 178 205 16,400  Level Kansas City Center
Mon 11:00:06 AM 36.9150 -96.3583 259° West 176 203 16,400  Level Kansas City Center
Mon 11:01:08 AM 36.9053 -96.4175 258° West 174 200 16,400  Level Kansas City Center
Mon 11:02:10 AM 36.8944 -96.4892 259° West 175 201 16,400  Level Kansas City Center
Mon 11:03:12 AM 36.8844 -96.5478 258° West 174 200 16,400  Level Kansas City Center
Mon 11:04:14 AM 36.8747 -96.6078 259° West 175 201 16,400  Level Kansas City Center
Mon 11:05:16 AM 36.8656 -96.6678 259° West 176 203 16,400  Level Kansas City Center
Mon 11:06:18 AM 36.8558 -96.7272 258° West 175 201 16,400  Level Kansas City Center
Mon 11:07:20 AM 36.8456 -96.7881 258° West 177 204 16,400  Level Kansas City Center
Mon 11:08:22 AM 36.8336 -96.8603 258° West 177 204 16,400  Level Kansas City Center
Mon 11:09:24 AM 36.8242 -96.9194 259° West 175 201 16,400  Level Kansas City Center
Mon 11:10:26 AM 36.8144 -96.9792 259° West 175 201 16,400  Level Kansas City Center
Mon 11:11:28 AM 36.8031 -97.0397 257° West 178 205 16,400  Level Kansas City Center
Mon 11:12:40 AM 36.7886 -97.1194 257° West 177 204 16,400  Level Kansas City Center
Mon 11:13:32 AM 36.7833 -97.1622 261° West 176 203 16,400  Level Kansas City Center
Mon 11:14:29 AM 36.7717 -97.2283 258° West 179 206 16,400  Level Kansas City Center
Mon 11:15:30 AM 36.7597 -97.2894 256° West 179 206 16,400  Level Kansas City Center
Mon 11:16:31 AM 36.7497 -97.3531 259° West 179 206 16,400  Level Kansas City Center
Mon 11:17:31 AM 36.7394 -97.4117 258° West 179 206 16,400  Level Kansas City Center
Mon 11:18:32 AM 36.7294 -97.4753 259° West 179 206 16,400  Level Kansas City Center
Mon 11:19:33 AM 36.7192 -97.5336 258° West 179 206 16,400  Level Kansas City Center
Mon 11:20:28 AM 36.7089 -97.5919 258° West 178 205 16,400  Level Kansas City Center
Mon 11:21:40 AM 36.6972 -97.6636 259° West 178 205 16,400  Level Kansas City Center
Mon 11:22:41 AM 36.6869 -97.7219 258° West 179 206 16,400  Level Kansas City Center
Mon 11:23:48 AM 36.6750 -97.7883 257° West 178 205 16,400  Level Kansas City Center
Mon 11:24:48 AM 36.6628 -97.8519 257° West 180 207 16,400  Level Kansas City Center
Mon 11:25:49 AM 36.6544 -97.9128 260° West 181 208 16,400  Level Kansas City Center
Mon 11:26:37 AM 36.6436 -97.9658 256° West 180 207 16,400  Level Kansas City Center
Mon 11:27:38 AM 36.6328 -98.0242 257° West 181 208 16,400  Level Kansas City Center
Mon 11:28:33 AM 36.6239 -98.0772 258° West 180 207 16,400  Level Kansas City Center
Mon 11:29:03 AM 36.6200 -98.1044 260° West 180 207 16,400  Level Kansas City Center
Mon 11:29:52 AM 36.6089 -98.1619 256° West 181 208 16,400  Level Kansas City Center
Mon 11:30:40 AM 36.5997 -98.2122 257° West 182 209 16,400  Level Kansas City Center
Mon 11:31:41 AM 36.5894 -98.2756 259° West 181 208 16,400  Level Kansas City Center
Mon 11:32:36 AM 36.5806 -98.3283 258° West 181 208 16,400  Level Kansas City Center
Mon 11:33:11 AM 36.5747 -98.3622 258° West 181 208 16,400  Level Kansas City Center
Mon 11:33:43 AM 36.5683 -98.3969 257° West 179 206 16,400  Level Kansas City Center
Mon 11:34:13 AM 36.5639 -98.4231 258° West 181 208 16,400  Level Kansas City Center
Mon 11:34:43 AM 36.5575 -98.4553 256° West 179 206 16,400  Level Kansas City Center
Mon 11:35:15 AM 36.5522 -98.4836 257° West 180 207 16,400  Level Kansas City Center
Mon 11:36:17 AM 36.5422 -98.5439 258° West 179 206 16,400  Level Kansas City Center
Mon 11:36:51 AM 36.5328 -98.5875 255° West 180 207 16,400  Level Kansas City Center
Mon 11:37:52 AM 36.5217 -98.6456 257° West 180 207 16,400  Level Kansas City Center
Mon 11:38:53 AM 36.5111 -98.7064 258° West 179 206 16,400  Level Kansas City Center
Mon 11:39:23 AM 36.5064 -98.7394 260° West 180 207 16,400  Level Kansas City Center
Mon 11:39:59 AM 36.4986 -98.7750 255° West 179 206 16,400  Level Kansas City Center
Mon 11:41:00 AM 36.4878 -98.8331 257° West 179 206 16,400  Level Kansas City Center
Mon 11:42:01 AM 36.4769 -98.8961 258° West 179 206 16,400  Level Kansas City Center
Mon 11:42:56 AM 36.4678 -98.9489 258° West 179 206 16,400  Level Kansas City Center
Mon 11:43:31 AM 36.4617 -98.9786 256° West 180 207 16,400  Level Kansas City Center
Mon 11:44:03 AM 36.4553 -99.0175 258° West 180 207 16,400  Level Kansas City Center
Mon 11:44:33 AM 36.4483 -99.0528 256° West 183 211 16,400  Level Kansas City Center
Mon 11:45:10 AM 36.4408 -99.0886 255° West 181 208 16,400  Level Kansas City Center
Mon 11:46:10 AM 36.4297 -99.1492 257° West 181 208 16,400  Level Kansas City Center
Mon 11:47:11 AM 36.4189 -99.2097 257° West 183 211 16,400  Level Kansas City Center
Mon 11:48:46 AM 36.4003 -99.3061 257° West 180 207 16,400  Level Albuquerque Center
Mon 11:49:48 AM 36.3894 -99.3675 258° West 182 209 16,400  Level Albuquerque Center
Mon 11:50:50 AM 36.3792 -99.4269 258° West 179 206 16,400  Level Albuquerque Center
Mon 11:51:47 AM 36.3658 -99.4906 255° West 185 213 16,400  Level Kansas City Center
Mon 11:52:49 AM 36.3547 -99.5514 257° West 182 209 16,400  Level Kansas City Center
Mon 11:53:51 AM 36.3428 -99.6108 256° West 180 207 16,400  Level Kansas City Center
Mon 11:54:53 AM 36.3314 -99.6731 257° West 183 211 16,400  Level Kansas City Center
Mon 11:55:56 AM 36.3200 -99.7342 257° West 183 211 16,400  Level Kansas City Center
Mon 11:56:58 AM 36.3056 -99.8067 256° West 182 209 16,400  Level Kansas City Center
Mon 11:58:00 AM 36.2939 -99.8664 256° West 180 207 16,400  Level Kansas City Center
Mon 11:59:02 AM 36.2819 -99.9269 256° West 181 208 16,400  Level Kansas City Center
Mon 12:00:04 PM 36.2703 -99.9883 257° West 182 209 16,400  Level Kansas City Center
Mon 12:01:06 PM 36.2592 -100.0494 257° West 181 208 16,400  Level Kansas City Center
Mon 12:02:08 PM 36.2464 -100.1117 256° West 185 213 16,400  Level Kansas City Center
Mon 12:03:10 PM 36.2344 -100.1731 256° West 184 212 16,400 -194 Level Kansas City Center
Mon 12:04:12 PM 36.2200 -100.2489 257° West 187 215 16,000 -339 Descending Kansas City Center
Mon 12:05:14 PM 36.2072 -100.3156 257° West 195 224 15,700 -339 Descending Kansas City Center
Mon 12:06:16 PM 36.1942 -100.3817 256° West 198 228 15,300 -387 Descending Kansas City Center
Mon 12:07:18 PM 36.1803 -100.4481 255° West 199 229 14,900 -387 Descending Kansas City Center
Mon 12:08:20 PM 36.1664 -100.5133 255° West 197 227 14,500 -387 Descending Kansas City Center
Mon 12:09:22 PM 36.1544 -100.5786 257° West 194 223 14,100 -387 Descending Kansas City Center
Mon 12:10:24 PM 36.1392 -100.6567 256° West 195 224 13,700 -387 Descending Kansas City Center
Mon 12:11:26 PM 36.1253 -100.7247 256° West 195 224 13,300 -328 Descending Kansas City Center
Mon 12:12:32 PM 36.1128 -100.7878 256° West 196 226 13,000 -328 Descending Albuquerque Center
Mon 12:13:34 PM 36.0994 -100.8531 256° West 196 226 12,600 -336 Descending Albuquerque Center
Mon 12:14:37 PM 36.0850 -100.9186 255° West 196 226 12,300 -384 Descending Albuquerque Center
Mon 12:15:39 PM 36.0714 -100.9986 258° West 197 227 11,800 -435 Descending Albuquerque Center
Mon 12:16:41 PM 36.0569 -101.0636 255° West 197 227 11,400 -339 Descending Albuquerque Center
Mon 12:17:43 PM 36.0431 -101.1292 255° West 195 224 11,100 -339 Descending Albuquerque Center
Mon 12:18:45 PM 36.0297 -101.1950 256° West 198 228 10,700 -387 Descending Albuquerque Center
Mon 12:19:47 PM 36.0164 -101.2608 256° West 197 227 10,300 -387 Descending Albuquerque Center
Mon 12:20:49 PM 36.0050 -101.3256 258° West 197 227 9,900 -435 Descending Albuquerque Center
Mon 12:21:51 PM 35.9886 -101.3964 254° West 188 216 9,400 -435 Descending Albuquerque Center
Mon 12:22:53 PM 35.9753 -101.4572 255° West 185 213 9,000 -387 Descending Albuquerque Center
Mon 12:23:55 PM 35.9619 -101.5200 255° West 187 215 8,600 -387 Descending Albuquerque Center

Login

Don't have an account? Register now (free) for customized features, flight alerts, and more!